Time;durP1;ratioP1;P1;durP2;ratioP2;P2;SDS_P1;SDS_P2;PMS_P1;PMS_P2;Temp;Humidity;BMP_temperature;BMP_pressure;BME280_temperature;BME280_humidity;BME280_pressure;Samples;Min_cycle;Max_cycle;Signal;HPM_P1;HPM_P2
2022/04/02 00:02:23;;;;;;;21.70;6.60;;;;;;;20.20;42.85;98803.78;1767985;81;21640;-57
2022/04/02 00:04:49;;;;;;;30.87;6.37;;;;;;;20.72;42.52;98799.46;1753902;79;22260;-55
2022/04/02 00:07:16;;;;;;;23.33;6.17;;;;;;;19.81;44.04;98798.08;1768543;80;21720;-56
2022/04/02 00:09:45;;;;;;;28.50;7.87;;;;;;;19.86;44.65;98801.47;1769352;80;21669;-56
2022/04/02 00:12:12;;;;;;;20.03;5.57;;;;;;;19.40;45.65;98796.56;1768376;80;22242;-55
2022/04/02 00:14:38;;;;;;;22.17;5.97;;;;;;;19.40;45.65;98796.56;1768109;80;21559;-56
2022/04/02 00:17:07;;;;;;;23.43;6.90;;;;;;;20.18;44.75;98784.98;1771049;80;22320;-57
2022/04/02 00:19:36;;;;;;;19.57;6.13;;;;;;;19.42;46.04;98792.31;1769160;80;21723;-56
2022/04/02 00:22:04;;;;;;;24.17;6.93;;;;;;;19.15;47.50;98796.20;1756805;80;22155;-56
2022/04/02 00:24:32;;;;;;;17.00;5.43;;;;;;;19.34;47.29;98791.58;1769287;80;21696;-60
2022/04/02 00:26:59;;;;;;;19.47;5.33;;;;;;;19.50;47.48;98789.61;1768447;80;21738;-56
2022/04/02 00:29:27;;;;;;;24.87;6.40;;;;;;;19.50;47.48;98789.61;1769012;80;21731;-57
2022/04/02 00:31:54;;;;;;;18.47;5.00;;;;;;;19.25;48.67;98780.83;1768864;80;21610;-57
2022/04/02 00:34:22;;;;;;;25.20;4.87;;;;;;;19.56;48.10;98779.25;1769143;80;21330;-56
2022/04/02 00:36:51;;;;;;;19.13;5.10;;;;;;;19.43;48.20;98776.20;1768170;80;21492;-57
2022/04/02 00:39:20;;;;;;;22.53;4.63;;;;;;;19.42;48.73;98773.81;1768214;80;21751;-57
2022/04/02 00:41:46;;;;;;;19.03;5.20;;;;;;;19.79;47.94;98766.64;1768587;80;21660;-57
2022/04/02 00:44:17;;;;;;;24.37;5.73;;;;;;;19.18;49.73;98756.04;1768991;80;21802;-56
2022/04/02 00:46:45;;;;;;;18.82;4.97;;;;;;;19.18;49.73;98756.04;1768276;80;21556;-59
2022/04/02 00:49:14;;;;;;;20.50;4.73;;;;;;;19.33;49.59;98760.95;1769220;80;21487;-56
2022/04/02 00:51:42;;;;;;;18.70;5.43;;;;;;;19.19;49.99;98745.72;1767870;80;21645;-57
2022/04/02 00:54:13;;;;;;;18.97;5.23;;;;;;;19.19;49.99;98745.72;1769001;80;22205;-57
2022/04/02 00:56:40;;;;;;;21.85;6.15;;;;;;;19.32;49.56;98749.59;1769871;80;21530;-58
2022/04/02 00:59:08;;;;;;;23.17;6.03;;;;;;;20.18;47.23;98742.66;1768111;80;21102;-56
2022/04/02 01:01:38;;;;;;;20.50;5.40;;;;;;;20.03;46.98;98745.48;1772740;79;21592;-55
2022/04/02 01:04:08;;;;;;;15.50;6.10;;;;;;;20.23;45.47;98735.73;1729678;81;21458;-56
2022/04/02 01:06:38;;;;;;;21.57;5.73;;;;;;;20.23;45.47;98735.73;1763124;80;21966;-55
2022/04/02 01:09:06;;;;;;;17.63;5.53;;;;;;;20.23;45.35;98744.99;1756758;80;22069;-55
2022/04/02 01:11:37;;;;;;;17.73;5.50;;;;;;;20.23;45.35;98744.99;1769104;80;21719;-56
2022/04/02 01:14:04;;;;;;;21.23;6.10;;;;;;;20.39;45.09;98733.95;1756816;80;21352;-56
2022/04/02 01:16:33;;;;;;;19.63;5.47;;;;;;;20.39;45.09;98733.95;1767748;80;22302;-55
2022/04/02 01:19:03;;;;;;;21.30;6.27;;;;;;;20.19;45.83;98724.92;1767955;80;21464;-56
2022/04/02 01:21:30;;;;;;;23.37;6.20;;;;;;;20.19;45.83;98724.92;1767595;81;21393;-55
2022/04/02 01:23:59;;;;;;;19.77;5.30;;;;;;;19.29;46.89;98718.98;1767482;81;21621;-55
2022/04/02 01:26:26;;;;;;;21.40;6.47;;;;;;;18.97;48.36;98726.87;1763945;79;21510;-56
2022/04/02 01:28:59;;;;;;;23.20;6.23;;;;;;;18.92;48.61;98713.72;1769608;79;21760;-56
2022/04/02 01:31:27;;;;;;;23.37;6.83;;;;;;;19.52;46.64;98717.45;1739684;80;21390;-58
2022/04/02 01:33:55;;;;;;;20.10;7.53;;;;;;;19.52;46.64;98717.45;1737932;80;21798;-56
2022/04/02 01:36:24;;;;;;;23.30;6.80;;;;;;;19.51;46.46;98714.53;1731874;80;21536;-55
2022/04/02 01:38:58;;;;;;;24.47;7.73;;;;;;;19.50;45.19;98714.28;1733321;80;21594;-54
2022/04/02 01:41:26;;;;;;;25.90;7.30;;;;;;;19.19;45.99;98715.34;1747045;81;21724;-55
2022/04/02 01:43:53;;;;;;;25.83;7.40;;;;;;;19.19;45.99;98715.34;1747922;80;22088;-59
2022/04/02 01:46:19;;;;;;;28.00;7.53;;;;;;;19.24;45.64;98712.40;1747238;80;21562;-56
2022/04/02 01:48:47;;;;;;;22.80;7.07;;;;;;;18.95;44.66;98707.89;1748030;80;22293;-57
2022/04/02 01:51:13;;;;;;;22.23;7.23;;;;;;;18.95;44.66;98707.89;1747364;81;21524;-55
2022/04/02 01:53:40;;;;;;;20.63;7.03;;;;;;;19.10;44.47;98709.09;1747677;80;21474;-56
2022/04/02 01:56:09;;;;;;;20.73;5.80;;;;;;;19.01;44.92;98708.62;1747115;80;21507;-55
2022/04/02 01:58:39;;;;;;;19.90;7.27;;;;;;;19.06;44.29;98704.11;1747358;80;21477;-56
2022/04/02 02:01:08;;;;;;;21.87;6.10;;;;;;;19.27;43.67;98702.06;1742262;80;21466;-55
2022/04/02 02:03:36;;;;;;;20.33;6.37;;;;;;;19.72;42.31;98698.76;1747278;80;21584;-59
2022/04/02 02:06:03;;;;;;;27.30;7.13;;;;;;;19.72;42.31;98698.76;1722254;82;22426;-55
2022/04/02 02:08:31;;;;;;;22.30;6.60;;;;;;;19.08;43.02;98699.32;1722239;82;21979;-55
2022/04/02 02:11:04;;;;;;;19.07;6.43;;;;;;;20.05;41.44;98702.36;1722323;82;21374;-55
2022/04/02 02:13:51;;;;;;;18.93;5.70;;;;;;;20.29;40.49;98708.93;1640970;86;21349;-55
2022/04/02 02:16:20;;;;;;;21.60;6.63;;;;;;;19.39;41.44;98714.91;1640971;87;21274;-56
2022/04/02 02:18:50;;;;;;;23.57;6.33;;;;;;;19.16;41.90;98716.42;1670912;82;21281;-55
2022/04/02 02:21:17;;;;;;;22.47;7.60;;;;;;;18.90;42.12;98720.60;1722416;82;21336;-58
2022/04/02 02:23:45;;;;;;;24.23;7.43;;;;;;;18.90;42.12;98720.60;1722881;82;21734;-54
2022/04/02 02:26:12;;;;;;;23.83;6.00;;;;;;;18.86;42.36;98722.19;1722349;82;21230;-55
2022/04/02 02:28:41;;;;;;;26.40;6.40;;;;;;;18.69;42.55;98718.58;1722636;82;21402;-55
2022/04/02 02:31:09;;;;;;;20.90;6.47;;;;;;;19.34;41.69;98711.00;1721983;82;21812;-61
2022/04/02 02:36:25;;;;;;;19.10;5.17;;;;;;;19.56;40.38;98710.53;1706124;82;21828;-55
2022/04/02 02:38:57;;;;;;;17.80;6.33;;;;;;;19.61;40.05;98707.83;1720494;82;21296;-55
2022/04/02 02:41:31;;;;;;;18.43;5.57;;;;;;;19.51;39.99;98698.67;1721341;82;21323;-57
2022/04/02 02:44:01;;;;;;;23.93;6.63;;;;;;;19.44;39.37;98703.77;1722682;82;23426;-55
2022/04/02 02:46:29;;;;;;;20.67;6.13;;;;;;;19.44;39.37;98703.77;1722333;82;21260;-56
2022/04/02 02:48:59;;;;;;;16.90;6.03;;;;;;;19.48;39.74;98693.97;1711932;81;21375;-58
2022/04/02 02:51:26;;;;;;;17.87;5.80;;;;;;;19.54;39.49;98688.88;1693707;82;21305;-55
2022/04/02 02:53:55;;;;;;;21.47;4.90;;;;;;;19.14;39.93;98696.91;1721597;82;21942;-56
2022/04/02 02:56:22;;;;;;;20.53;7.20;;;;;;;18.21;41.08;98701.16;1722283;82;21330;-55
2022/04/02 02:58:51;;;;;;;20.90;5.53;;;;;;;18.87;40.34;98688.68;1721965;82;21793;-55
2022/04/02 03:01:18;;;;;;;23.20;6.73;;;;;;;19.15;39.86;98677.34;1728071;78;21371;-57
2022/04/02 03:03:48;;;;;;;19.73;5.73;;;;;;;19.25;39.53;98673.84;1751793;80;21683;-58
2022/04/02 03:06:16;;;;;;;19.93;5.90;;;;;;;19.29;39.42;98678.81;1752566;81;22021;-57
2022/04/02 03:08:45;;;;;;;18.10;4.50;;;;;;;19.22;39.17;98673.06;1726655;80;21128;-56
2022/04/02 03:11:14;;;;;;;20.20;5.27;;;;;;;19.37;39.01;98678.74;1754212;80;21404;-57
2022/04/02 03:13:41;;;;;;;20.03;6.47;;;;;;;19.20;39.06;98680.47;1736557;80;21303;-58
2022/04/02 03:16:10;;;;;;;20.33;6.40;;;;;;;19.16;39.10;98675.48;1736304;80;21247;-57
2022/04/02 03:18:39;;;;;;;21.60;5.73;;;;;;;19.14;39.16;98676.31;1730373;81;21279;-58
2022/04/02 03:21:07;;;;;;;18.10;5.90;;;;;;;19.15;39.08;98679.20;1734821;81;21732;-57
2022/04/02 03:23:35;;;;;;;19.00;5.33;;;;;;;19.18;38.95;98674.16;1732113;80;21198;-56
2022/04/02 03:26:03;;;;;;;18.20;5.50;;;;;;;19.03;39.09;98683.52;1735756;81;21296;-57
2022/04/02 03:28:32;;;;;;;15.33;4.77;;;;;;;19.27;38.70;98667.73;1731455;80;21193;-59
2022/04/02 03:31:00;;;;;;;18.57;5.77;;;;;;;19.23;38.70;98673.31;1736130;81;21357;-56
2022/04/02 03:33:27;;;;;;;24.00;5.17;;;;;;;19.34;38.38;98669.51;1731792;80;21406;-56
2022/04/02 03:35:55;;;;;;;18.53;5.13;;;;;;;19.42;38.35;98660.97;1736148;80;21320;-59
2022/04/02 03:38:24;;;;;;;19.27;5.57;;;;;;;19.24;38.61;98652.96;1730904;80;21822;-62
2022/04/02 03:40:51;;;;;;;19.57;5.90;;;;;;;19.36;38.32;98658.14;1727442;80;21289;-58
2022/04/02 03:43:17;;;;;;;19.30;4.87;;;;;;;19.36;38.36;98650.22;1728598;80;21322;-58
2022/04/02 03:45:44;;;;;;;21.47;7.10;;;;;;;19.54;38.15;98647.37;1733444;80;21174;-59
2022/04/02 03:48:12;;;;;;;24.53;5.90;;;;;;;20.01;37.63;98633.91;1733446;80;21330;-60
2022/04/02 03:50:41;;;;;;;18.97;5.90;;;;;;;20.01;37.63;98633.91;1732141;81;21960;-58
2022/04/02 03:53:09;;;;;;;17.87;6.20;;;;;;;20.17;36.81;98632.62;1733027;81;21437;-57
2022/04/02 03:55:38;;;;;;;20.00;5.83;;;;;;;20.37;36.59;98641.34;1731726;80;21902;-58
2022/04/02 03:58:10;;;;;;;18.60;5.77;;;;;;;20.38;36.59;98645.05;1730550;80;21367;-63
2022/04/02 04:00:38;;;;;;;23.17;6.10;;;;;;;20.61;36.44;98638.66;1730553;81;21426;-58
2022/04/02 04:03:07;;;;;;;16.97;5.43;;;;;;;20.73;36.65;98628.41;1768523;79;21522;-57
2022/04/02 04:05:37;;;;;;;21.47;7.67;;;;;;;21.14;35.83;98629.05;1777322;80;22022;-58
2022/04/02 04:08:06;;;;;;;28.47;7.00;;;;;;;21.59;35.23;98616.03;1771300;80;21676;-58
2022/04/02 04:10:35;;;;;;;22.20;7.03;;;;;;;21.72;34.92;98610.48;1782668;80;21660;-60
2022/04/02 04:13:02;;;;;;;15.53;7.13;;;;;;;22.17;34.15;98613.29;1782747;80;21820;-57
2022/04/02 04:15:31;;;;;;;23.00;7.53;;;;;;;22.34;33.79;98617.40;1782880;80;20982;-57
2022/04/02 04:17:59;;;;;;;20.70;8.20;;;;;;;22.55;33.23;98617.17;1782939;80;21050;-58
2022/04/02 04:20:27;;;;;;;25.10;9.00;;;;;;;22.78;32.83;98610.53;1782827;80;21053;-63
2022/04/02 04:22:54;;;;;;;18.13;7.07;;;;;;;23.12;32.70;98611.29;1783193;80;21201;-58
2022/04/02 04:25:24;;;;;;;20.80;7.53;;;;;;;23.58;32.56;98608.72;1782958;80;20986;-58
2022/04/02 04:27:53;;;;;;;20.43;6.92;;;;;;;24.35;31.22;98611.81;1783429;80;21042;-57
2022/04/02 04:30:21;;;;;;;20.20;8.47;;;;;;;24.80;30.83;98619.48;1782643;80;21034;-60
2022/04/02 04:32:50;;;;;;;19.20;6.97;;;;;;;25.45;29.90;98605.78;1783039;80;20946;-59
2022/04/02 04:35:17;;;;;;;22.33;7.37;;;;;;;25.21;29.28;98599.70;1783081;80;21127;-57
2022/04/02 04:37:44;;;;;;;16.10;6.47;;;;;;;25.25;28.81;98595.84;1783159;80;21006;-59
2022/04/02 04:40:15;;;;;;;16.52;7.15;;;;;;;25.48;28.58;98594.47;1782348;80;21019;-63
2022/04/02 04:42:45;;;;;;;22.57;6.97;;;;;;;25.66;28.32;98579.71;1783085;80;21375;-57
2022/04/02 04:45:14;;;;;;;17.77;7.30;;;;;;;25.88;27.87;98582.66;1783182;80;21042;-58
2022/04/02 04:47:46;;;;;;;19.33;6.10;;;;;;;27.34;26.04;98575.65;1783344;80;21730;-57
2022/04/02 04:50:14;;;;;;;24.70;7.07;;;;;;;27.63;25.48;98579.98;1782960;80;20947;-62
2022/04/02 04:52:40;;;;;;;18.63;6.20;;;;;;;27.82;25.13;98572.72;1782735;80;21002;-57
2022/04/02 04:55:09;;;;;;;20.07;6.77;;;;;;;27.76;24.90;98565.26;1783084;80;21046;-58
2022/04/02 04:57:37;;;;;;;16.17;6.37;;;;;;;27.86;24.73;98574.95;1783253;80;20994;-58
2022/04/02 05:00:06;;;;;;;22.47;6.40;;;;;;;28.06;24.49;98563.05;1772062;80;21355;-64
2022/04/02 05:02:35;;;;;;;21.93;7.43;;;;;;;28.19;24.07;98561.91;1777536;80;21375;-59
2022/04/02 05:05:04;;;;;;;16.23;6.33;;;;;;;28.18;24.20;98568.92;1774544;80;21019;-58
2022/04/02 05:07:33;;;;;;;17.40;7.97;;;;;;;28.10;24.06;98566.05;1774699;80;21006;-58
2022/04/02 05:10:02;;;;;;;17.60;6.33;;;;;;;27.82;24.50;98575.41;1774077;80;20963;-58
2022/04/02 05:12:32;;;;;;;15.17;6.13;;;;;;;28.05;24.16;98566.86;1774549;80;21270;-58
2022/04/02 05:15:01;;;;;;;21.97;6.80;;;;;;;28.23;24.15;98574.06;1747199;80;20939;-57
2022/04/02 05:17:28;;;;;;;18.03;7.00;;;;;;;28.35;23.79;98570.76;1774992;80;21647;-58
2022/04/02 05:19:56;;;;;;;24.40;7.20;;;;;;;28.12;23.87;98567.06;1774273;79;21007;-56
2022/04/02 05:22:23;;;;;;;22.67;5.83;;;;;;;27.98;23.92;98561.30;1774619;80;21591;-57
2022/04/02 05:24:51;;;;;;;18.77;6.27;;;;;;;26.81;24.58;98568.00;1774652;80;21220;-56
2022/04/02 05:27:18;;;;;;;19.13;6.97;;;;;;;25.67;26.04;98562.59;1774950;80;21078;-56
2022/04/02 05:29:46;;;;;;;17.57;6.00;;;;;;;25.26;26.56;98567.28;1775031;80;21101;-56
2022/04/02 05:32:13;;;;;;;16.40;5.87;;;;;;;24.80;27.18;98569.63;1774342;80;20982;-55
2022/04/02 05:34:41;;;;;;;19.33;6.30;;;;;;;24.37;27.53;98561.14;1775231;80;22372;-58
2022/04/02 05:37:08;;;;;;;17.50;6.50;;;;;;;24.01;28.06;98556.92;1746717;80;21238;-57
2022/04/02 05:39:36;;;;;;;19.40;6.33;;;;;;;23.66;28.50;98561.95;1774889;80;20908;-58
2022/04/02 05:42:07;;;;;;;19.80;5.90;;;;;;;23.38;28.84;98558.77;1774624;80;21014;-59
2022/04/02 05:44:33;;;;;;;16.02;4.67;;;;;;;23.05;29.33;98560.45;1775213;80;21565;-56
2022/04/02 05:47:01;;;;;;;20.80;5.77;;;;;;;22.95;29.54;98556.17;1774997;80;21011;-56
2022/04/02 05:49:28;;;;;;;19.00;5.70;;;;;;;22.82;29.67;98555.70;1774908;80;21212;-56
2022/04/02 05:51:56;;;;;;;18.13;4.77;;;;;;;22.73;29.98;98549.03;1775129;80;20947;-57
2022/04/02 05:54:22;;;;;;;27.63;6.30;;;;;;;23.15;29.92;98542.12;1773064;79;21103;-56
2022/04/02 05:56:49;;;;;;;21.73;6.57;;;;;;;22.86;29.91;98540.72;1772694;80;20976;-57
2022/04/02 05:59:16;;;;;;;25.40;6.50;;;;;;;22.91;29.95;98545.11;1763549;80;21094;-57
2022/04/02 06:01:42;;;;;;;21.43;5.83;;;;;;;22.84;30.03;98534.91;1774968;80;21148;-56
2022/04/02 06:04:09;;;;;;;23.33;6.07;;;;;;;22.76;30.03;98537.77;1774852;80;21540;-62
2022/04/02 06:06:37;;;;;;;25.97;5.93;;;;;;;22.72;30.02;98530.72;1775355;80;21348;-57
2022/04/02 06:09:06;;;;;;;19.13;6.03;;;;;;;22.82;30.24;98522.50;1741623;81;20847;-56
2022/04/02 06:11:34;;;;;;;22.27;4.90;;;;;;;22.86;30.04;98524.00;1753475;80;20950;-57
2022/04/02 06:14:00;;;;;;;17.03;5.17;;;;;;;22.90;29.95;98503.15;1753078;80;21222;-61
2022/04/02 06:16:29;;;;;;;19.77;5.50;;;;;;;22.93;29.89;98513.20;1753011;80;20918;-58
2022/04/02 06:18:55;;;;;;;26.57;6.77;;;;;;;23.14;29.73;98512.63;1753618;80;21002;-58
2022/04/02 06:21:22;;;;;;;20.43;6.20;;;;;;;23.13;29.81;98505.20;1752935;80;21081;-58
2022/04/02 06:23:50;;;;;;;23.47;6.67;;;;;;;23.29;29.72;98509.55;1753696;81;20954;-56
2022/04/02 06:26:18;;;;;;;23.77;6.87;;;;;;;23.58;29.23;98506.32;1753031;80;21150;-56
2022/04/02 06:28:44;;;;;;;18.60;5.70;;;;;;;23.80;29.05;98501.44;1753376;80;22424;-57
2022/04/02 06:31:12;;;;;;;21.13;6.23;;;;;;;23.91;29.00;98499.26;1753075;81;21038;-58
2022/04/02 06:33:41;;;;;;;26.60;6.43;;;;;;;24.14;28.67;98501.97;1743362;80;20918;-59
2022/04/02 06:36:08;;;;;;;19.57;5.60;;;;;;;25.14;27.56;98485.31;1740999;80;21022;-62
2022/04/02 06:38:35;;;;;;;17.10;4.33;;;;;;;24.54;27.96;98499.09;1753007;80;21127;-57
2022/04/02 06:41:03;;;;;;;24.10;7.50;;;;;;;25.18;27.65;98503.01;1752993;81;20918;-59
2022/04/02 06:43:29;;;;;;;25.63;5.80;;;;;;;25.35;27.11;98520.81;1753129;81;20947;-56
2022/04/02 06:46:01;;;;;;;;;;;;;;;26.05;26.31;98514.98;1756120;80;21053;-62
2022/04/02 06:48:27;;;;;;;17.97;5.47;;;;;;;26.07;26.42;98516.79;1752399;81;20173;-57
2022/04/02 06:50:54;;;;;;;27.90;6.67;;;;;;;26.03;26.33;98505.20;1753444;80;21166;-57
2022/04/02 06:53:21;;;;;;;28.43;6.67;;;;;;;26.35;26.12;98516.98;1752918;80;20946;-56
2022/04/02 06:55:48;;;;;;;24.63;7.50;;;;;;;26.46;26.11;98504.02;1736213;81;21483;-57
2022/04/02 06:58:27;;;;;;;17.87;6.13;;;;;;;25.81;26.69;98513.77;1752299;81;20934;-58
2022/04/02 07:00:53;;;;;;;25.43;6.87;;;;;;;26.88;25.94;98511.31;1753201;80;21053;-57
2022/04/02 07:03:20;;;;;;;21.17;5.97;;;;;;;27.52;25.52;98509.30;1746870;81;21214;-57
2022/04/02 07:05:47;;;;;;;23.83;6.03;;;;;;;27.71;25.17;98511.37;1807821;79;21643;-57
2022/04/02 07:08:14;;;;;;;20.80;6.67;;;;;;;27.40;25.06;98508.76;1806926;79;20908;-62
2022/04/02 07:10:41;;;;;;;21.93;6.27;;;;;;;27.15;25.73;98515.24;1805764;77;22468;-56
2022/04/02 07:13:07;;;;;;;24.93;6.00;;;;;;;26.73;26.12;98523.44;1806773;79;21113;-58
2022/04/02 07:15:35;;;;;;;21.20;5.90;;;;;;;27.05;25.94;98515.66;1807576;79;20955;-57
2022/04/02 07:18:10;;;;;;;21.83;6.27;;;;;;;27.19;25.84;98528.17;1797560;77;21010;-61
2022/04/02 07:20:39;;;;;;;19.80;6.20;;;;;;;27.22;25.77;98521.38;1814875;77;21010;-56
2022/04/02 07:23:09;;;;;;;30.17;7.83;;;;;;;28.29;25.27;98526.56;1794619;79;21082;-57
2022/04/02 07:25:38;;;;;;;31.23;7.00;;;;;;;28.73;24.86;98513.73;1803918;77;21110;-58
2022/04/02 07:28:06;;;;;;;21.20;6.93;;;;;;;28.05;25.30;98514.63;1800675;77;21148;-61
2022/04/02 07:30:34;;;;;;;22.33;6.13;;;;;;;29.26;24.32;98497.55;1807544;79;21062;-57
2022/04/02 07:33:01;;;;;;;27.17;7.23;;;;;;;29.61;24.12;98500.81;1798792;77;21049;-57
2022/04/02 07:35:32;;;;;;;26.13;7.17;;;;;;;30.00;23.76;98496.77;1803322;77;21552;-59
2022/04/02 07:38:16;;;;;;;30.97;7.90;;;;;;;30.38;23.47;98491.15;1812064;77;21105;-62
2022/04/02 07:41:04;;;;;;;24.73;7.30;;;;;;;30.61;23.18;98497.33;1807112;79;21169;-57
2022/04/02 07:43:53;;;;;;;25.07;7.23;;;;;;;30.19;23.70;98487.39;1793425;79;21002;-59
2022/04/02 07:46:27;;;;;;;20.17;7.17;;;;;;;29.72;24.02;98489.72;1799270;78;21094;-59
2022/04/02 07:48:54;;;;;;;30.50;8.37;;;;;;;29.84;24.17;98484.77;1806144;77;21695;-59
2022/04/02 07:51:28;;;;;;;24.70;8.27;;;;;;;29.77;24.29;98492.11;1794694;77;21509;-59
2022/04/02 07:53:58;;;;;;;26.50;7.97;;;;;;;29.79;24.18;98495.23;1804965;77;21916;-59
2022/04/02 07:56:31;;;;;;;27.20;9.25;;;;;;;29.72;24.24;98476.30;1807601;77;21022;-58
2022/04/02 07:59:09;;;;;;;32.00;13.80;;;;;;;29.77;24.39;98473.31;1807247;77;20916;-59
2022/04/02 08:01:37;;;;;;;28.17;8.33;;;;;;;30.01;24.34;98461.51;1792425;77;21074;-60
2022/04/02 08:04:04;;;;;;;26.60;7.13;;;;;;;30.07;24.38;98456.61;1794138;77;21555;-58
2022/04/02 08:06:32;;;;;;;22.70;8.63;;;;;;;29.85;24.46;98470.77;1798046;77;21493;-57
2022/04/02 08:09:00;;;;;;;29.37;8.27;;;;;;;29.86;24.50;98463.72;1798312;77;21099;-58
2022/04/02 08:11:28;;;;;;;27.73;8.40;;;;;;;29.89;24.51;98455.49;1796937;78;21500;-58
2022/04/02 08:13:55;;;;;;;24.10;8.77;;;;;;;30.43;24.22;98449.20;1790916;77;21068;-58
2022/04/02 08:16:21;;;;;;;29.43;7.73;;;;;;;31.42;23.24;98435.11;1797903;77;21492;-59
2022/04/02 08:18:50;;;;;;;26.37;8.43;;;;;;;31.76;23.21;98439.15;1801118;78;21567;-57
2022/04/02 08:21:18;;;;;;;21.07;7.40;;;;;;;31.29;23.18;98427.59;1758904;79;20919;-60
2022/04/02 08:23:44;;;;;;;26.63;8.03;;;;;;;32.20;22.62;98420.92;1798459;77;21491;-58
2022/04/02 08:26:44;;;;;;;28.80;8.10;;;;;;;31.43;22.98;98406.25;1784056;79;21061;-59
2022/04/02 08:29:32;;;;;;;26.70;8.00;;;;;;;30.95;23.63;98419.45;1791435;78;21056;-64
2022/04/02 08:32:41;;;;;;;34.25;9.03;;;;;;;30.95;23.70;98413.52;1779108;78;21240;-57
2022/04/02 08:35:13;;;;;;;24.15;8.55;;;;;;;31.02;23.60;98406.09;1797953;77;21041;-60
2022/04/02 08:37:56;;;;;;;29.63;7.83;;;;;;;30.91;23.42;98406.52;1798164;78;20982;-59
2022/04/02 08:40:51;;;;;;;29.50;9.25;;;;;;;30.65;23.77;98395.97;1797332;78;21346;-59
2022/04/02 08:43:45;;;;;;;24.10;7.67;;;;;;;31.60;23.07;98386.07;1798032;77;21445;-63
2022/04/02 08:46:34;;;;;;;29.52;8.23;;;;;;;30.88;23.73;98386.52;1797535;78;20927;-58
2022/04/02 08:49:24;;;;;;;24.30;7.97;;;;;;;31.92;23.23;98381.79;1798092;77;21519;-58
2022/04/02 08:52:21;;;;;;;20.00;7.77;;;;;;;32.30;22.78;98381.72;1797880;78;21034;-59
2022/04/02 08:55:14;;;;;;;29.25;8.53;;;;;;;32.80;21.77;98371.28;1794764;78;21061;-57
2022/04/02 08:57:53;;;;;;;21.47;7.47;;;;;;;32.82;21.57;98367.65;1799241;77;20997;-62
2022/04/02 09:00:24;;;;;;;28.43;8.63;;;;;;;32.80;21.47;98362.61;1787492;78;21229;-58
2022/04/02 09:03:18;;;;;;;31.85;7.78;;;;;;;32.80;21.59;98355.09;1786692;78;21002;-58
2022/04/02 09:06:25;;;;;;;28.83;8.40;;;;;;;33.00;21.50;98354.25;1798308;77;21123;-57
2022/04/02 09:09:07;;;;;;;26.25;8.25;;;;;;;32.99;21.65;98345.38;1796892;78;21022;-60
2022/04/02 09:12:18;;;;;;;31.40;9.10;;;;;;;33.14;21.52;98327.31;1797956;77;21085;-57
2022/04/02 09:15:11;;;;;;;29.40;8.40;;;;;;;32.81;21.57;98345.30;1797253;77;21503;-58
2022/04/02 09:18:11;;;;;;;23.47;7.27;;;;;;;32.76;21.65;98307.86;1770254;78;20930;-60
2022/04/02 09:20:55;;;;;;;29.63;8.67;;;;;;;32.87;21.66;98313.31;1770696;77;21092;-59
2022/04/02 09:23:45;;;;;;;27.33;8.70;;;;;;;33.00;21.36;98306.47;1788920;77;21100;-59
2022/04/02 09:26:59;;;;;;;20.17;7.37;;;;;;;32.86;21.63;98294.23;1788535;77;21049;-58
2022/04/02 09:29:33;;;;;;;26.30;8.43;;;;;;;32.93;21.62;98285.61;1788305;78;21237;-59
2022/04/02 09:32:22;;;;;;;31.60;7.53;;;;;;;33.06;21.54;98278.52;1756039;77;21120;-64
2022/04/02 09:35:13;;;;;;;30.00;8.40;;;;;;;33.02;21.53;98289.88;1787276;77;21028;-57
2022/04/02 09:38:12;;;;;;;30.30;7.90;;;;;;;32.52;22.09;98296.38;1787388;78;20958;-58
2022/04/02 09:40:48;;;;;;;27.80;9.40;;;;;;;32.37;22.07;98296.27;1788636;77;21626;-59
2022/04/02 09:43:33;;;;;;;25.68;8.30;;;;;;;32.21;22.19;98281.72;1786757;78;21226;-59
2022/04/02 09:46:27;;;;;;;26.53;7.63;;;;;;;32.73;21.95;98283.56;1789075;77;21080;-57
2022/04/02 09:49:10;;;;;;;25.93;7.17;;;;;;;33.05;21.81;98281.80;1800348;77;20985;-55
2022/04/02 09:51:37;;;;;;;26.07;8.37;;;;;;;33.38;21.60;98290.75;1793745;77;21626;-56
2022/04/02 09:54:23;;;;;;;32.57;9.20;;;;;;;33.79;21.03;98279.61;1797036;78;21053;-56
2022/04/02 09:56:51;;;;;;;25.57;7.50;;;;;;;33.71;21.28;98283.47;1762084;77;21106;-57
2022/04/02 09:59:47;;;;;;;24.85;7.70;;;;;;;33.80;21.09;98290.62;1797739;78;21013;-58
2022/04/02 10:02:22;;;;;;;27.77;8.67;;;;;;;33.34;21.18;98265.67;1797688;78;21555;-57
2022/04/02 10:04:56;;;;;;;25.33;8.70;;;;;;;33.29;21.59;98272.78;1801723;78;21093;-56
2022/04/02 10:07:40;;;;;;;28.37;8.70;;;;;;;33.28;21.58;98288.22;1797622;77;21613;-56
2022/04/02 10:10:07;;;;;;;27.43;8.03;;;;;;;33.40;21.66;98274.92;1799683;79;22185;-60
2022/04/02 10:12:42;;;;;;;31.13;8.47;;;;;;;33.47;21.19;98288.47;1807921;79;21052;-62
2022/04/02 10:15:09;;;;;;;25.83;8.63;;;;;;;32.88;21.68;98273.02;1795268;79;22379;-57
2022/04/02 10:17:37;;;;;;;28.17;8.37;;;;;;;32.52;22.08;98290.98;1807640;79;20980;-57
2022/04/02 10:20:06;;;;;;;30.33;9.90;;;;;;;33.11;21.74;98271.38;1764448;79;21607;-57
2022/04/02 10:22:41;;;;;;;29.43;9.37;;;;;;;32.77;21.98;98282.99;1794179;79;22253;-63
2022/04/02 10:25:10;;;;;;;33.67;9.57;;;;;;;33.00;21.97;98261.93;1796050;79;21054;-57
2022/04/02 10:27:40;;;;;;;28.27;9.13;;;;;;;32.94;22.04;98268.84;1807372;79;20998;-57
2022/04/02 10:30:11;;;;;;;29.03;8.70;;;;;;;32.97;21.92;98271.36;1769494;80;21493;-56
2022/04/02 10:35:43;;;;;;;22.93;8.97;;;;;;;32.63;21.84;98260.22;1745598;81;21154;-63
2022/04/02 10:38:37;;;;;;;33.37;9.30;;;;;;;32.67;22.31;98255.60;1710717;82;21534;-56
2022/04/02 10:41:12;;;;;;;33.87;8.60;;;;;;;32.45;22.42;98256.66;1745348;81;21013;-57
2022/04/02 10:44:00;;;;;;;31.47;8.13;;;;;;;32.52;22.21;98251.30;1771077;80;21085;-57
2022/04/02 10:46:27;;;;;;;28.93;10.10;;;;;;;32.16;22.28;98250.28;1716485;81;21586;-56
2022/04/02 10:49:08;;;;;;;32.03;8.93;;;;;;;32.08;22.58;98250.81;1810947;77;21125;-58
2022/04/02 10:51:34;;;;;;;37.10;11.00;;;;;;;32.59;22.39;98243.82;1798066;77;21322;-57
2022/04/02 10:54:12;;;;;;;28.77;9.70;;;;;;;32.87;22.07;98236.40;1807002;77;21066;-56
2022/04/02 10:56:48;;;;;;;32.37;10.17;;;;;;;32.90;22.08;98226.20;1808776;77;20955;-56
2022/04/02 10:59:16;;;;;;;36.70;8.90;;;;;;;32.87;22.13;98232.34;1767188;79;20974;-57
2022/04/02 11:01:46;;;;;;;42.13;13.30;;;;;;;32.89;21.85;98227.36;1737898;80;21762;-57
2022/04/02 11:04:41;;;;;;;36.07;9.83;;;;;;;32.96;21.61;98236.86;1777001;79;20919;-56
2022/04/02 11:07:08;;;;;;;61.03;11.27;;;;;;;32.75;21.61;98232.70;1779867;80;21053;-58
2022/04/02 11:09:41;;;;;;;46.90;11.07;;;;;;;32.62;21.62;98197.98;1780451;80;21567;-56
2022/04/02 11:12:14;;;;;;;39.23;10.50;;;;;;;32.55;21.83;98212.78;1769003;80;21468;-59
2022/04/02 11:14:49;;;;;;;45.58;9.63;;;;;;;32.45;22.05;98210.81;1780823;80;21107;-57
2022/04/02 11:17:32;;;;;;;39.90;10.00;;;;;;;32.69;21.59;98187.22;1780154;80;21041;-58
2022/04/02 11:20:18;;;;;;;38.83;10.23;;;;;;;32.71;21.65;98186.83;1780025;80;21120;-63
2022/04/02 11:23:03;;;;;;;51.40;11.57;;;;;;;32.66;21.63;98172.37;1780362;80;21038;-57
2022/04/02 11:25:35;;;;;;;54.20;11.10;;;;;;;32.59;21.95;98182.55;1779629;80;21610;-57
2022/04/02 11:28:18;;;;;;;49.40;10.60;;;;;;;32.50;22.12;98170.56;1780063;80;22360;-57
2022/04/02 11:31:03;;;;;;;60.27;13.50;;;;;;;32.57;22.11;98159.22;1780118;80;21542;-57
2022/04/02 11:33:32;;;;;;;54.73;17.23;;;;;;;33.08;21.90;98162.26;1780567;79;22134;-57
2022/04/02 11:36:06;;;;;;;70.53;14.93;;;;;;;33.04;21.96;98159.37;1780243;80;21104;-58
2022/04/02 11:38:57;;;;;;;48.23;13.27;;;;;;;33.04;21.87;98154.73;1780385;80;21096;-57
2022/04/02 11:41:34;;;;;;;59.33;12.77;;;;;;;32.81;21.96;98144.84;1780504;79;21378;-56
2022/04/02 11:44:08;;;;;;;55.40;11.07;;;;;;;32.68;22.24;98152.52;1780317;80;21515;-58
2022/04/02 11:46:58;;;;;;;57.17;11.90;;;;;;;32.68;22.23;98149.81;1779036;79;21061;-58
2022/04/02 11:49:39;;;;;;;63.80;13.25;;;;;;;32.42;22.81;98145.49;1757919;80;21093;-57
2022/04/02 11:52:12;;;;;;;70.20;15.47;;;;;;;32.47;22.93;98141.09;1768437;80;21092;-58
2022/04/02 11:54:42;;;;;;;64.70;13.80;;;;;;;32.31;23.26;98162.94;1780831;80;21253;-58